LFJLGMMX

Guest
Details From LFJL - Metz-Nancy-Lorraine
To GMMX - MENARA
Flight Number -
Tags decoded
Created
Modified
Stats Distance 1,227 nm / 2,272 km
Max Altitude 0 ft / 0 m
Waypoints 2
Social Downloads 7
Likes 0
Share VATSIM

Download

Looking for another format? Having issues loading an existing format? Contact us
Advertisement - Login to hide

Notes

Requested: LFJL GMMX

Route

LFJL GMMX

ID Type Via Altitude Latitude Longitude Leg Dist Tot Dist Heading (true) Name
O LFJL APT - 0 ft / 0 m 48.98065˚ 6.24947˚ - 0 nm - Metz-Nancy-Lorraine
O GMMX APT - 0 ft / 0 m 31.60692˚ -8.03627˚ 1227 nm 1227 nm 217° / 208° MENARA

Altitude Profile

Advertisement - Login to hide

Weather


0- 5 10 15 20 25 30 35+ Temperature / ° C

Clouds and Precipitation
Forecast for 2017-12-18 06:00 UTC. Updated 19 minutes ago

Ground ~20,000 ft ~40,000 ft Winds

LFJL

Details ICAO LFJL (ETZ)
Name Metz-Nancy-Lorraine
Region France
Timezone Europe/Paris (UTC+1.0)
Stats Elevation 870 ft / 265 m (AMSL)
Location 48.980645° 6.249473°
Runways 1
Magnetic Variation 1.720° E

METAR

LFJL 180130Z AUTO 20014KT 3100 SN BR OVC009 00/M00 Q1022 TEMPO 20015G25KT 1000 SN OVC003

Decode

TAF

TAF LFJL 172300Z 1800/1824 19012KT 3000 -SN OVC005 TEMPO 1802/1806 20015G25KT 1000 SN OVC003 BECMG 1806/1809 5000 -DZSN BECMG 1809/1811 33009KT 9999 NSW BECMG 1811/1813 BKN020

Decode

Departure Runways

ID Width Length Bearing (true) Bearing (mag) Surface Threshold Offset Overrun Length
04 148 ft / 45 m 10,016 ft / 3,053 m 39.13° 37.41° Asphalt 656 ft / 200 m 0 ft / 0 m
22 148 ft / 45 m 10,016 ft / 3,053 m 219.15° 217.43° Asphalt 0 ft / 0 m 0 ft / 0 m

GMMX

Details ICAO GMMX (RAK)
Name MENARA
Region Morocco
Timezone Africa/Casablanca (UTC+0.0)
Stats Elevation 1,545 ft / 471 m (AMSL)
Location 31.606920° -8.036265°
Runways 1
Magnetic Variation 1.998° W

METAR

GMMX 180130Z AUTO 09004KT 9999NDV /// 09/06 Q1024

Decode

TAF

TAF GMMX 172300Z 1800/1906 02006KT 8000 NSC TEMPO 1805/1810 3000 BR BKN010

Decode

Destination Runways

ID Width Length Bearing (true) Bearing (mag) Surface Threshold Offset Overrun Length
10 148 ft / 45 m 10,169 ft / 3,100 m 95.99° 97.99° Asphalt 918 ft / 280 m 0 ft / 0 m
28 148 ft / 45 m 10,169 ft / 3,100 m 276.00° 278.00° Asphalt 0 ft / 0 m 0 ft / 0 m

Approach Navaids

Runway Type Ident Frequency Range Bearing (true) Bearing (mag) Slope Elevation
10 Localiser MAR 109.70 MHz 18 nm / 33 km 96.03° 98.02° - 1,545 ft / 471 m (AMSL)
10 Glidescope MAR 109.70 MHz 10 nm / 19 km 96.00° 97.99° 3.00° 1,558 ft / 475 m (AMSL)